Ashfield, MA (01330)

10:40 AM EDT on April 20, 2018 (GMT -0400)
Apple Valley | | Change Station

Elev 1014 ft 42.56 °N, 72.82 °W | Updated 1 second ago

Mostly Cloudy
Mostly Cloudy
38.5 °F
Feels Like 38 °F
N
3.0
Wind Variable Wind from NNE
Gusts 20.0 mph

Today
High -- | Low -- °F
--% Chance of Precip.
Yesterday
High -- | Low -- °F
Precip. -- in
Pressure 30.12 in
Visibility 10.0 miles
Clouds Overcast 3500 ft
Windchill 38 °F
Dew Point 21 °F
Humidity 46%
Rainfall 0.00 in
Snow Depth Not available.
6:02 AM 7:38 PM
Waxing Crescent, 25% visible
METAR KAQW 201352Z AUTO 29011G21KT 10SM OVC035 02/M04 A3010 RMK AO2 SLP200 T00171044
Pressure 30.12 in
Visibility 10.0 miles
Clouds Overcast 3500 ft
Windchill 38 °F
Dew Point 21 °F
Humidity 46%
Rainfall 0.00 in
Snow Depth Not available.
6:02 AM 7:38 PM
Waxing Crescent, 25% visible
METAR KAQW 201352Z AUTO 29011G21KT 10SM OVC035 02/M04 A3010 RMK AO2 SLP200 T00171044

Get Severe Weather Alerts

Thanks for signing up!

Be on the lookout for a verification email in your inbox.

You'll start receiving the daily forecast at 6 AM.

×

10-Day Weather Forecast

Almanac

Astronomy

Apr. 20, 2018 Rise Set
Actual Time
Civil Twilight
Nautical Twilight
Astronomical Twilight
Moon
Length of Visible Light
Length of Day
Tomorrow will be .
, % of the Moon is Illuminated

Today's Extremes

State Highs State Lows

Community

WunderPhotos

Category 6

Welcome to Category 6. This is the collective home for Weather Underground's featured writeups by Dr. Jeff Masters (right), Bob Henson (left), Chris Burt, and other regular contributors.

Nearby

Air Quality

  Air Quality AQ Index Pollutant
Not available.

Snow Depth

Station Depth Elevation

Earthquake Activity

City Distance Mag. Time & Date
Minimum magnitude displayed is 2.5.

Coastal Water Temperatures

Place Temperature

Stations

Nearby Weather Stations

Station Location Temp. Windchill Dew Point Humidity Wind Precip. Elev Updated Type
                   

Watches & Warnings

There are currently no watches in effect.